Time;durP1;ratioP1;P1;durP2;ratioP2;P2;SDS_P1;SDS_P2;PMS_P1;PMS_P2;Temp;Humidity;BMP_temperature;BMP_pressure;BME280_temperature;BME280_humidity;BME280_pressure;Samples;Min_cycle;Max_cycle;Signal;HPM_P1;HPM_P2
2023/10/10 00:00:27;;;;;;;19.57;5.33;;;15.80;26.20;;;;;;4997222;28;46543;-81
2023/10/10 00:02:54;;;;;;;22.83;5.43;;;15.70;26.30;;;;;;4997678;28;46498;-80
2023/10/10 00:05:33;;;;;;;20.90;4.73;;;15.60;26.50;;;;;;5000576;28;46422;-77
2023/10/10 00:07:59;;;;;;;17.63;4.47;;;15.60;26.70;;;;;;5001065;28;45869;-81
2023/10/10 00:10:27;;;;;;;24.73;5.13;;;15.50;26.90;;;;;;5000982;28;46421;-79
2023/10/10 00:12:53;;;;;;;17.70;5.20;;;15.50;26.90;;;;;;5002849;28;46419;-80
2023/10/10 00:15:24;;;;;;;24.53;5.93;;;15.50;27.00;;;;;;5000573;28;46759;-79
2023/10/10 00:17:50;;;;;;;25.20;5.03;;;15.50;27.10;;;;;;5000903;28;46427;-81
2023/10/10 00:20:22;;;;;;;16.77;4.90;;;15.50;26.90;;;;;;5000759;28;47019;-80
2023/10/10 00:22:48;;;;;;;30.43;5.63;;;15.50;26.90;;;;;;5000057;28;46486;-80
2023/10/10 00:25:23;;;;;;;17.97;5.17;;;15.50;27.00;;;;;;4998723;28;46678;-79
2023/10/10 00:27:55;;;;;;;17.40;4.50;;;15.40;27.10;;;;;;4999442;28;46708;-79
2023/10/10 00:30:22;;;;;;;19.60;5.67;;;15.50;27.40;;;;;;5000164;28;47050;-80
2023/10/10 00:32:50;;;;;;;18.93;5.00;;;15.30;27.40;;;;;;5002046;28;46415;-80
2023/10/10 00:35:17;;;;;;;15.93;4.87;;;15.20;27.70;;;;;;4999962;28;46753;-79
2023/10/10 00:37:44;;;;;;;16.93;4.67;;;15.20;28.00;;;;;;4999378;28;46542;-81
2023/10/10 00:40:15;;;;;;;22.97;6.13;;;15.10;28.00;;;;;;5000022;28;46410;-80
2023/10/10 00:42:41;;;;;;;21.27;5.57;;;15.10;28.10;;;;;;5001388;28;46451;-81
2023/10/10 00:45:15;;;;;;;27.23;5.80;;;15.10;28.30;;;;;;5000352;28;46729;-80
2023/10/10 00:47:47;;;;;;;17.00;4.90;;;15.10;28.30;;;;;;5002048;28;45983;-81
2023/10/10 00:50:18;;;;;;;28.50;5.73;;;15.10;28.50;;;;;;5002579;28;46419;-81
2023/10/10 00:52:48;;;;;;;22.93;6.07;;;15.10;28.50;;;;;;5003505;28;46389;-82
2023/10/10 00:55:21;;;;;;;26.47;5.70;;;15.10;28.50;;;;;;5000969;28;47311;-80
2023/10/10 00:57:52;;;;;;;22.60;5.00;;;15.00;28.50;;;;;;5003291;28;46977;-80
2023/10/10 01:00:19;;;;;;;15.67;4.83;;;15.00;28.60;;;;;;5000156;28;46558;-80
2023/10/10 01:02:45;;;;;;;18.13;5.50;;;14.90;28.90;;;;;;4999119;28;46725;-80
2023/10/10 01:05:14;;;;;;;36.93;6.23;;;14.90;29.00;;;;;;4999751;28;46484;-80
2023/10/10 01:07:46;;;;;;;19.40;4.63;;;14.80;29.50;;;;;;5000076;28;46439;-80
2023/10/10 01:10:16;;;;;;;14.13;5.60;;;14.60;29.40;;;;;;5002858;28;46723;-80
2023/10/10 01:12:43;;;;;;;28.43;5.27;;;14.70;29.40;;;;;;5002748;28;46554;-80
2023/10/10 01:15:26;;;;;;;18.80;4.63;;;14.60;29.30;;;;;;5001733;28;46527;-80
2023/10/10 01:17:54;;;;;;;19.17;5.23;;;14.50;29.30;;;;;;5001491;28;47046;-80
2023/10/10 01:20:33;;;;;;;24.23;5.30;;;14.50;29.60;;;;;;5002408;28;46749;-80
2023/10/10 01:23:00;;;;;;;32.70;6.13;;;14.40;29.90;;;;;;5001727;28;46528;-80
2023/10/10 01:28:02;;;;;;;20.53;5.67;;;14.30;30.50;;;;;;4999632;28;46525;-79
2023/10/10 01:30:56;;;;;;;16.50;6.07;;;14.20;31.10;;;;;;4998806;28;46599;-80
2023/10/10 01:33:28;;;;;;;24.10;5.83;;;14.20;31.40;;;;;;5000308;28;46870;-79
2023/10/10 01:35:55;;;;;;;22.77;5.43;;;14.10;31.70;;;;;;5001519;28;46676;-79
2023/10/10 01:38:38;;;;;;;24.90;5.13;;;14.10;31.80;;;;;;4999786;28;46848;-79
2023/10/10 01:41:15;;;;;;;25.17;5.40;;;14.10;31.90;;;;;;4998876;28;46463;-79
2023/10/10 01:43:46;;;;;;;21.83;4.83;;;14.00;32.00;;;;;;5001070;28;46770;-79
2023/10/10 01:46:27;;;;;;;15.67;6.30;;;14.00;32.20;;;;;;5000031;28;47488;-80
2023/10/10 01:49:01;;;;;;;21.47;5.37;;;14.00;32.30;;;;;;4994798;28;46369;-80
2023/10/10 01:51:33;;;;;;;24.97;5.27;;;13.90;32.20;;;;;;5001702;28;46406;-80
2023/10/10 01:53:59;;;;;;;21.50;5.77;;;13.90;32.30;;;;;;5004212;28;46727;-79
2023/10/10 01:56:28;;;;;;;24.67;5.40;;;13.90;32.30;;;;;;5005379;28;46305;-81
2023/10/10 01:58:54;;;;;;;24.97;5.57;;;13.90;32.20;;;;;;5006547;28;46947;-80
2023/10/10 02:01:20;;;;;;;30.23;5.20;;;13.80;32.50;;;;;;5005016;28;46902;-80
2023/10/10 02:03:47;;;;;;;21.10;5.10;;;13.80;33.10;;;;;;5004698;28;46447;-83
2023/10/10 02:06:22;;;;;;;21.60;5.70;;;13.80;33.30;;;;;;5002245;28;47056;-82
2023/10/10 02:08:51;;;;;;;27.57;6.03;;;13.80;33.60;;;;;;5004263;28;46491;-80
2023/10/10 02:11:20;;;;;;;22.83;5.70;;;13.80;33.80;;;;;;5002396;28;46774;-80
2023/10/10 02:13:47;;;;;;;21.50;5.07;;;13.80;33.90;;;;;;4999758;28;46657;-80
2023/10/10 02:16:15;;;;;;;18.80;5.60;;;13.90;34.20;;;;;;4997549;28;47019;-80
2023/10/10 02:18:44;;;;;;;22.20;5.30;;;13.90;34.40;;;;;;4998151;28;46635;-79
2023/10/10 02:21:16;;;;;;;18.40;5.00;;;13.90;34.60;;;;;;4997643;28;46567;-80
2023/10/10 02:23:46;;;;;;;33.13;6.03;;;13.80;34.70;;;;;;4997624;28;46491;-83
2023/10/10 02:26:23;;;;;;;18.30;5.50;;;13.80;34.80;;;;;;4998280;28;46518;-79
2023/10/10 02:28:57;;;;;;;28.60;6.07;;;13.90;36.10;;;;;;4999000;28;46666;-82
2023/10/10 02:31:28;;;;;;;20.53;5.80;;;13.90;34.80;;;;;;4998685;28;46606;-79
2023/10/10 02:34:02;;;;;;;17.33;5.30;;;13.90;34.90;;;;;;4999548;28;46533;-80
2023/10/10 02:36:31;;;;;;;23.53;5.40;;;13.90;34.90;;;;;;4998926;28;46895;-80
2023/10/10 02:39:11;;;;;;;19.33;5.53;;;13.90;35.20;;;;;;4985777;28;46438;-82
2023/10/10 02:41:39;;;;;;;26.60;6.43;;;13.90;35.30;;;;;;4985192;28;46478;-80
2023/10/10 02:44:10;;;;;;;24.47;6.00;;;14.10;35.30;;;;;;4993449;28;46846;-81
2023/10/10 02:46:38;;;;;;;18.67;6.17;;;13.90;35.00;;;;;;4984434;28;48032;-82
2023/10/10 02:49:29;;;;;;;18.20;4.70;;;13.90;35.00;;;;;;4992195;28;46467;-82
2023/10/10 02:51:57;;;;;;;26.47;6.17;;;14.00;35.10;;;;;;4997756;28;46489;-80
2023/10/10 02:54:43;;;;;;;22.20;5.80;;;14.00;34.90;;;;;;4999896;28;47004;-78
2023/10/10 02:57:47;;;;;;;16.20;5.60;;;13.80;34.80;;;;;;4986944;28;50505;-81
2023/10/10 03:02:54;;;;;;;18.90;6.03;;;13.70;35.50;;;;;;4997652;28;46231;-79
2023/10/10 03:08:13;;;;;;;23.17;6.07;;;13.70;36.20;;;;;;4999073;28;46947;-82
2023/10/10 03:10:53;;;;;;;27.40;5.80;;;13.70;36.60;;;;;;5000796;28;45819;-81
2023/10/10 03:18:54;;;;;;;20.83;5.93;;;13.60;37.20;;;;;;4997662;28;46527;-79
2023/10/10 03:24:51;;;;;;;34.33;6.03;;;13.60;38.00;;;;;;5004557;28;46430;-80
2023/10/10 03:27:11;;;;;;;18.73;6.00;;;13.60;37.30;;;;;;4997453;28;45953;-81
2023/10/10 03:29:37;;;;;;;23.50;5.80;;;13.60;37.20;;;;;;4995257;28;46685;-79
2023/10/10 03:32:31;;;;;;;24.40;5.67;;;13.60;37.20;;;;;;4996491;28;47098;-82
2023/10/10 03:35:03;;;;;;;27.03;5.80;;;13.60;37.00;;;;;;4995824;28;46478;-81
2023/10/10 03:37:39;;;;;;;25.37;6.13;;;13.60;36.80;;;;;;4996175;28;46447;-79
2023/10/10 03:40:26;;;;;;;18.90;5.50;;;13.50;36.80;;;;;;4998481;28;48165;-83
2023/10/10 05:24:26;;;;;;;28.60;5.80;;;13.20;38.40;;;;;;4938483;28;46482;-81
2023/10/10 05:26:54;;;;;;;28.13;5.97;;;13.40;38.70;;;;;;4973401;28;46357;-82
2023/10/10 05:29:20;;;;;;;17.53;6.17;;;13.30;38.80;;;;;;5001888;28;46974;-83
2023/10/10 05:31:47;;;;;;;31.93;6.27;;;13.30;38.80;;;;;;5006031;28;46741;-82
2023/10/10 05:34:14;;;;;;;16.00;4.87;;;13.30;38.80;;;;;;5002025;28;46455;-84
2023/10/10 05:36:41;;;;;;;17.87;5.80;;;13.30;38.90;;;;;;5002299;28;46545;-85
2023/10/10 05:39:10;;;;;;;21.73;6.10;;;13.40;38.90;;;;;;4999319;28;47411;-80
2023/10/10 05:41:40;;;;;;;22.50;5.37;;;13.40;39.10;;;;;;5004150;28;46679;-81
2023/10/10 05:44:07;;;;;;;17.80;6.23;;;13.50;38.90;;;;;;4999661;28;46564;-81
2023/10/10 05:46:34;;;;;;;26.00;6.73;;;13.50;38.80;;;;;;4998840;28;46864;-82
2023/10/10 05:49:00;;;;;;;20.60;5.00;;;13.50;38.50;;;;;;4997347;28;48378;-80
2023/10/10 05:51:26;;;;;;;20.60;5.30;;;13.60;38.40;;;;;;4999960;28;46432;-80
2023/10/10 05:53:51;;;;;;;19.90;5.40;;;13.80;38.40;;;;;;5002662;28;46542;-80
2023/10/10 05:56:17;;;;;;;25.90;5.73;;;13.70;38.20;;;;;;4999023;28;46435;-82
2023/10/10 05:58:43;;;;;;;18.00;6.23;;;13.70;38.10;;;;;;4999061;28;46733;-81
2023/10/10 06:01:13;;;;;;;23.03;7.20;;;13.80;38.20;;;;;;4997067;28;46646;-80
2023/10/10 06:03:41;;;;;;;21.93;6.50;;;13.90;38.20;;;;;;4997179;28;46834;-82
2023/10/10 06:06:07;;;;;;;26.80;6.77;;;13.90;37.90;;;;;;4999393;28;46551;-80
2023/10/10 06:08:32;;;;;;;26.63;7.50;;;13.90;37.80;;;;;;4996706;28;47977;-80
2023/10/10 06:10:59;;;;;;;26.27;6.80;;;13.90;38.90;;;;;;4999005;28;46578;-81
2023/10/10 06:13:25;;;;;;;24.73;6.60;;;14.00;37.70;;;;;;4998620;28;46507;-81
2023/10/10 06:15:51;;;;;;;21.23;5.37;;;14.00;37.50;;;;;;4998053;28;46432;-80
2023/10/10 06:18:18;;;;;;;30.17;6.80;;;14.10;37.70;;;;;;4998056;28;47045;-82
2023/10/10 06:20:44;;;;;;;25.37;6.03;;;14.10;37.90;;;;;;4996260;28;47022;-80
2023/10/10 06:23:14;;;;;;;24.97;6.30;;;14.10;38.10;;;;;;4999512;28;46896;-82
2023/10/10 06:25:41;;;;;;;19.73;6.40;;;14.20;38.10;;;;;;4997823;28;46505;-81
2023/10/10 06:28:18;;;;;;;23.57;5.80;;;14.30;37.80;;;;;;4998980;28;46525;-81
2023/10/10 06:30:44;;;;;;;29.80;7.20;;;14.40;37.50;;;;;;4994131;28;45847;-82
2023/10/10 06:33:15;;;;;;;22.33;6.17;;;14.50;38.40;;;;;;4997490;28;46464;-80
2023/10/10 06:35:52;;;;;;;20.40;5.77;;;14.60;36.70;;;;;;4997429;28;46506;-80
2023/10/10 06:38:18;;;;;;;24.80;6.20;;;14.80;36.50;;;;;;4998529;28;48448;-82
2023/10/10 06:40:53;;;;;;;25.23;5.30;;;14.90;35.90;;;;;;4997095;28;46765;-80
2023/10/10 06:43:22;;;;;;;16.90;5.83;;;15.10;35.70;;;;;;4997510;28;46790;-79
2023/10/10 06:45:56;;;;;;;20.77;5.83;;;15.20;35.40;;;;;;4998171;28;46633;-81
2023/10/10 06:48:22;;;;;;;30.57;6.13;;;15.40;36.20;;;;;;4999204;28;47094;-80
2023/10/10 06:50:49;;;;;;;20.17;5.10;;;15.60;34.70;;;;;;4997637;28;46816;-81
2023/10/10 06:53:35;;;;;;;15.40;5.33;;;15.70;34.30;;;;;;5000401;28;46434;-81
2023/10/10 06:56:14;;;;;;;30.67;5.40;;;15.90;33.90;;;;;;4997626;28;46865;-82
2023/10/10 06:58:46;;;;;;;18.13;5.03;;;15.90;33.50;;;;;;4985629;28;48304;-80
2023/10/10 07:01:14;;;;;;;25.83;5.73;;;16.00;33.20;;;;;;4999781;28;46984;-79
2023/10/10 07:03:46;;;;;;;30.57;6.40;;;16.10;33.10;;;;;;4997494;28;46560;-81
2023/10/10 07:06:12;;;;;;;24.40;6.33;;;16.30;32.80;;;;;;4999142;28;46777;-80
2023/10/10 07:08:38;;;;;;;24.70;5.00;;;16.40;32.30;;;;;;4995579;28;46701;-79
2023/10/10 07:11:04;;;;;;;32.60;5.60;;;16.50;31.90;;;;;;4995969;28;46551;-81
2023/10/10 07:13:30;;;;;;;20.67;4.77;;;16.70;31.40;;;;;;5000785;28;46220;-79
2023/10/10 07:15:56;;;;;;;19.67;5.10;;;16.90;31.20;;;;;;4998645;28;47232;-80
2023/10/10 07:18:22;;;;;;;19.10;5.63;;;16.90;31.20;;;;;;4998106;28;46260;-82
2023/10/10 07:21:17;;;;;;;18.13;5.00;;;17.00;31.30;;;;;;4999207;28;46551;-84
2023/10/10 07:26:30;;;;;;;15.90;5.13;;;17.20;30.50;;;;;;4999591;28;46531;-79
2023/10/10 07:29:20;;;;;;;15.27;4.90;;;17.40;30.20;;;;;;4999021;28;46438;-80
2023/10/10 07:31:43;;;;;;;28.60;5.50;;;17.60;30.00;;;;;;4997393;28;46463;-78
2023/10/10 07:34:15;;;;;;;28.30;5.83;;;17.80;29.40;;;;;;4997518;28;46551;-80
2023/10/10 07:36:43;;;;;;;19.03;4.87;;;18.00;29.00;;;;;;4995484;28;46456;-80
2023/10/10 07:41:53;;;;;;;20.60;4.43;;;18.20;28.10;;;;;;4996491;28;46550;-80
2023/10/10 07:44:22;;;;;;;17.73;4.53;;;18.30;28.00;;;;;;4998770;28;46544;-81
2023/10/10 07:47:07;;;;;;;23.27;5.07;;;18.30;27.90;;;;;;4996815;28;46463;-81
2023/10/10 07:49:33;;;;;;;18.43;5.13;;;18.50;27.70;;;;;;4995618;28;46554;-81
2023/10/10 07:52:02;;;;;;;20.87;5.60;;;18.70;27.30;;;;;;4997360;28;46726;-80
2023/10/10 07:54:41;;;;;;;19.20;4.60;;;18.60;26.90;;;;;;4994998;28;45968;-81
2023/10/10 07:57:55;;;;;;;19.00;4.57;;;18.70;26.60;;;;;;4996329;28;47060;-80
2023/10/10 07:59:58;;;;;;;19.50;5.20;;;18.80;26.40;;;;;;4994313;28;47671;-81
2023/10/10 08:05:09;;;;;;;21.83;4.97;;;19.10;25.50;;;;;;4995768;28;46402;-83
2023/10/10 08:07:35;;;;;;;23.00;4.80;;;19.20;25.90;;;;;;4996114;28;46509;-82
2023/10/10 08:12:44;;;;;;;25.50;5.30;;;19.40;24.30;;;;;;4996782;28;46687;-79
2023/10/10 08:15:19;;;;;;;23.47;4.90;;;19.60;23.90;;;;;;4997748;28;46474;-78
2023/10/10 08:17:55;;;;;;;28.00;5.30;;;19.70;23.40;;;;;;4996214;28;46479;-78
2023/10/10 08:20:34;;;;;;;20.83;5.13;;;19.70;23.10;;;;;;4996792;28;49469;-79
2023/10/10 08:23:01;;;;;;;24.97;5.47;;;19.70;22.50;;;;;;5000545;28;46733;-81
2023/10/10 08:25:28;;;;;;;16.43;5.30;;;19.70;22.20;;;;;;5003122;28;47003;-79
2023/10/10 08:27:55;;;;;;;20.60;4.67;;;19.70;22.20;;;;;;5002146;28;46522;-79
2023/10/10 08:30:25;;;;;;;18.70;4.40;;;19.70;22.20;;;;;;5005477;28;46506;-78
2023/10/10 08:32:58;;;;;;;15.27;4.63;;;19.70;22.30;;;;;;5008686;28;46680;-79
2023/10/10 08:35:25;;;;;;;16.67;4.53;;;19.90;22.40;;;;;;5006476;28;46463;-79
2023/10/10 08:37:51;;;;;;;18.57;5.17;;;20.00;21.70;;;;;;5004428;28;46793;-80
2023/10/10 08:40:19;;;;;;;14.50;4.50;;;20.10;21.20;;;;;;5004169;28;48309;-82
2023/10/10 08:42:50;;;;;;;15.07;4.63;;;20.20;20.80;;;;;;5000061;28;46897;-76
2023/10/10 08:45:25;;;;;;;24.93;5.90;;;20.20;20.70;;;;;;5001254;28;46033;-80
2023/10/10 08:48:01;;;;;;;16.73;4.50;;;20.30;20.50;;;;;;4999012;28;46445;-80
2023/10/10 08:50:33;;;;;;;20.23;4.70;;;20.40;20.10;;;;;;5000227;28;49214;-80
2023/10/10 08:52:59;;;;;;;27.87;5.73;;;20.50;19.70;;;;;;5000302;28;45845;-81
2023/10/10 08:55:28;;;;;;;25.40;4.80;;;20.40;19.30;;;;;;5002460;28;46969;-80
2023/10/10 08:57:58;;;;;;;19.93;4.53;;;20.40;19.10;;;;;;5003113;28;46510;-81
2023/10/10 09:00:27;;;;;;;19.33;6.10;;;20.30;18.80;;;;;;5001471;28;47116;-79
2023/10/10 09:02:55;;;;;;;23.87;5.07;;;20.30;19.00;;;;;;5001453;28;46470;-79
2023/10/10 09:05:23;;;;;;;18.50;3.87;;;20.30;18.70;;;;;;5000884;28;46613;-82
2023/10/10 09:07:58;;;;;;;18.73;4.70;;;20.40;18.70;;;;;;5002008;28;46678;-81
2023/10/10 09:10:39;;;;;;;23.63;4.40;;;20.50;18.50;;;;;;5003182;28;46797;-81
2023/10/10 09:13:07;;;;;;;16.47;4.50;;;20.60;18.30;;;;;;5003449;28;46206;-79
2023/10/10 09:15:34;;;;;;;20.33;5.87;;;20.60;17.90;;;;;;5000961;28;46756;-80
2023/10/10 09:18:22;;;;;;;22.10;5.23;;;20.70;17.80;;;;;;4991282;28;46758;-80
2023/10/10 09:20:49;;;;;;;20.73;4.27;;;20.90;17.30;;;;;;5001173;28;46643;-79
2023/10/10 09:23:32;;;;;;;19.23;4.67;;;20.90;15.80;;;;;;4997318;28;47007;-79
2023/10/10 09:26:29;;;;;;;24.80;6.23;;;20.90;15.60;;;;;;4999903;28;46690;-79
2023/10/10 09:28:56;;;;;;;25.30;5.43;;;20.90;15.30;;;;;;5000359;28;46808;-80
2023/10/10 09:31:26;;;;;;;25.37;4.50;;;21.00;15.40;;;;;;4999899;28;47230;-79
2023/10/10 09:33:55;;;;;;;17.33;4.60;;;21.10;14.70;;;;;;4996732;28;46649;-79
2023/10/10 09:36:26;;;;;;;19.93;4.90;;;21.20;14.50;;;;;;5000245;28;46082;-80
2023/10/10 09:39:08;;;;;;;16.23;4.37;;;21.30;14.30;;;;;;4990466;28;46607;-78
2023/10/10 09:55:08;;;;;;;19.17;4.47;;;21.60;10.40;;;;;;4997166;28;46193;-79
2023/10/10 09:57:42;;;;;;;13.77;3.70;;;21.70;10.40;;;;;;5000539;28;46815;-80
2023/10/10 10:00:16;;;;;;;20.70;3.97;;;21.80;10.50;;;;;;4996586;28;46498;-79
2023/10/10 10:02:43;;;;;;;13.73;4.20;;;21.90;9.90;;;;;;5000144;28;46626;-78
2023/10/10 10:05:16;;;;;;;20.90;4.90;;;22.00;9.60;;;;;;4997923;28;45850;-80
2023/10/10 10:07:56;;;;;;;20.90;5.30;;;22.10;9.50;;;;;;5004704;28;46845;-80
2023/10/10 10:10:46;;;;;;;19.30;4.40;;;22.20;8.10;;;;;;5005669;28;46502;-81
2023/10/10 10:13:48;;;;;;;25.27;4.60;;;22.30;8.10;;;;;;5005092;28;46585;-81
2023/10/10 10:16:37;;;;;;;18.07;4.70;;;22.50;7.90;;;;;;4998810;28;46486;-82
2023/10/10 10:19:18;;;;;;;17.53;4.20;;;22.70;7.90;;;;;;5007586;28;46420;-80
2023/10/10 10:24:45;;;;;;;23.07;4.60;;;22.90;7.00;;;;;;5000992;28;46534;-81
2023/10/10 10:27:24;;;;;;;17.80;5.57;;;22.90;6.80;;;;;;4987653;28;46817;-80
2023/10/10 10:29:54;;;;;;;20.13;5.03;;;23.00;6.30;;;;;;4999919;28;46480;-79
2023/10/10 10:32:23;;;;;;;11.90;4.30;;;23.10;5.40;;;;;;5001454;28;46702;-81
2023/10/10 10:34:55;;;;;;;26.63;5.23;;;23.10;5.20;;;;;;4998823;28;46509;-80
2023/10/10 10:37:23;;;;;;;20.07;5.10;;;23.20;4.50;;;;;;5001878;28;46659;-81
2023/10/10 10:40:23;;;;;;;16.07;4.20;;;23.20;4.10;;;;;;5002636;28;46366;-80
2023/10/10 10:42:53;;;;;;;16.03;4.23;;;23.40;3.60;;;;;;5002520;28;46486;-80
2023/10/10 10:45:41;;;;;;;13.57;4.60;;;23.50;3.40;;;;;;4998820;28;46517;-79
2023/10/10 10:48:11;;;;;;;13.87;4.00;;;23.70;2.90;;;;;;4999344;28;47148;-81
2023/10/10 10:50:42;;;;;;;20.83;4.67;;;23.90;2.70;;;;;;5001550;28;46596;-83
2023/10/10 10:53:30;;;;;;;18.93;4.73;;;23.90;2.70;;;;;;5008574;28;46783;-85
2023/10/10 10:56:37;;;;;;;16.37;4.40;;;23.90;2.70;;;;;;4999710;28;46702;-84
2023/10/10 10:59:11;;;;;;;19.37;4.60;;;24.00;1.80;;;;;;5001892;28;46397;-83
2023/10/10 11:01:51;;;;;;;15.87;4.63;;;24.00;1.60;;;;;;5001246;28;46899;-82
2023/10/10 11:04:39;;;;;;;12.20;3.93;;;24.10;1.20;;;;;;4998178;28;46479;-82
2023/10/10 11:07:08;;;;;;;16.83;3.90;;;24.10;1.60;;;;;;4998956;28;46515;-81
2023/10/10 11:09:43;;;;;;;20.37;4.80;;;24.20;1.20;;;;;;4998391;28;46631;-82
2023/10/10 11:12:09;;;;;;;24.23;4.23;;;24.20;2.10;;;;;;4995780;28;46395;-80
2023/10/10 11:14:44;;;;;;;20.13;4.37;;;24.20;1.00;;;;;;4996208;28;46767;-83
2023/10/10 11:17:17;;;;;;;19.70;4.80;;;24.00;1.00;;;;;;4998612;28;48575;-83
2023/10/10 11:19:46;;;;;;;24.53;4.30;;;24.20;1.00;;;;;;4996983;28;46410;-81
2023/10/10 11:22:38;;;;;;;14.80;3.80;;;24.10;1.00;;;;;;4997662;28;46004;-80
2023/10/10 11:25:04;;;;;;;16.10;4.07;;;24.10;1.00;;;;;;4998096;28;46916;-82
2023/10/10 11:27:33;;;;;;;15.83;4.33;;;24.20;1.00;;;;;;4996069;28;46614;-81
2023/10/10 11:30:07;;;;;;;19.87;4.63;;;24.20;1.00;;;;;;4995865;28;46499;-81
2023/10/10 11:32:47;;;;;;;14.97;5.10;;;24.20;1.00;;;;;;4996693;28;46697;-81
2023/10/10 11:35:23;;;;;;;15.53;4.13;;;24.20;1.00;;;;;;4996150;28;46689;-81
2023/10/10 11:37:59;;;;;;;11.50;3.50;;;24.10;1.00;;;;;;4995774;28;48659;-80
2023/10/10 11:43:04;;;;;;;18.10;4.27;;;24.00;1.00;;;;;;4997738;28;46501;-81
2023/10/10 11:45:41;;;;;;;23.13;4.87;;;24.00;1.00;;;;;;4997840;28;46690;-79
2023/10/10 11:48:14;;;;;;;27.60;6.40;;;24.20;1.00;;;;;;4986896;28;48584;-81
2023/10/10 11:50:50;;;;;;;17.43;5.00;;;24.20;1.00;;;;;;4997943;28;46463;-82
2023/10/10 11:53:23;;;;;;;13.83;4.80;;;24.20;1.00;;;;;;4996033;28;47272;-81
2023/10/10 11:55:53;;;;;;;16.20;4.73;;;24.20;1.00;;;;;;4997793;28;46968;-81
2023/10/10 11:58:19;;;;;;;14.83;4.27;;;24.20;1.00;;;;;;4999913;28;47397;-79
2023/10/10 12:00:45;;;;;;;20.60;5.10;;;24.30;1.00;;;;;;5001679;28;46915;-81
2023/10/10 12:06:00;;;;;;;19.33;5.53;;;24.50;1.00;;;;;;5002053;28;46839;-80
2023/10/10 12:08:26;;;;;;;19.63;5.00;;;24.60;1.00;;;;;;5001594;28;46412;-80
2023/10/10 12:10:53;;;;;;;23.33;5.70;;;24.70;1.00;;;;;;5000363;28;46483;-82
2023/10/10 12:16:00;;;;;;;19.03;5.23;;;24.80;1.00;;;;;;5000415;28;46534;-84
2023/10/10 12:18:30;;;;;;;21.43;4.87;;;24.70;1.00;;;;;;5000232;28;46476;-85
2023/10/10 12:20:57;;;;;;;21.83;4.90;;;24.70;1.00;;;;;;4990804;28;46415;-81
2023/10/10 12:23:23;;;;;;;18.10;4.80;;;24.60;1.00;;;;;;4996571;28;46720;-84
2023/10/10 12:25:49;;;;;;;21.83;5.70;;;24.50;1.00;;;;;;4999555;28;46651;-82
2023/10/10 12:28:17;;;;;;;22.43;4.40;;;24.40;1.00;;;;;;4997566;28;47114;-84
2023/10/10 12:30:44;;;;;;;26.53;5.07;;;24.40;1.00;;;;;;4998316;28;46430;-84
2023/10/10 12:33:12;;;;;;;18.07;5.10;;;24.30;1.00;;;;;;4998825;28;47451;-81
2023/10/10 12:35:42;;;;;;;27.70;5.13;;;24.30;1.00;;;;;;4998507;28;46474;-85
2023/10/10 12:38:08;;;;;;;19.93;6.00;;;24.10;1.00;;;;;;4999201;28;46647;-83
2023/10/10 12:40:34;;;;;;;20.20;5.10;;;24.10;1.00;;;;;;5000298;28;46542;-85
2023/10/10 12:43:03;;;;;;;24.03;4.63;;;24.00;1.00;;;;;;5001600;28;46502;-87
2023/10/10 12:45:29;;;;;;;17.53;5.23;;;24.00;1.00;;;;;;5000667;28;47613;-82
2023/10/10 12:47:57;;;;;;;16.33;4.87;;;24.00;1.00;;;;;;5000889;28;47411;-85
2023/10/10 12:50:26;;;;;;;27.67;5.03;;;24.10;1.00;;;;;;5000055;28;46509;-84
2023/10/10 12:55:55;;;;;;;16.93;4.57;;;23.90;1.00;;;;;;4982725;28;46513;-84
2023/10/10 12:58:22;;;;;;;25.20;4.90;;;23.80;1.00;;;;;;4996002;28;47704;-83
2023/10/10 13:00:52;;;;;;;26.53;5.30;;;23.70;1.00;;;;;;4997885;28;46540;-84
2023/10/10 13:03:20;;;;;;;17.77;4.40;;;23.60;1.00;;;;;;4998089;28;46381;-84
2023/10/10 13:05:47;;;;;;;19.60;4.00;;;23.60;1.00;;;;;;4998789;28;46974;-85
2023/10/10 13:08:15;;;;;;;24.27;5.33;;;23.50;1.00;;;;;;4996774;28;48273;-80
2023/10/10 13:10:42;;;;;;;14.20;3.87;;;23.50;1.00;;;;;;4996949;28;46584;-82
2023/10/10 13:13:08;;;;;;;29.97;5.60;;;23.40;1.00;;;;;;4997990;28;46477;-81
2023/10/10 13:15:47;;;;;;;23.90;4.20;;;23.40;1.00;;;;;;4997831;28;46902;-82
2023/10/10 13:18:19;;;;;;;29.23;6.40;;;23.40;1.00;;;;;;4997788;28;46506;-81
2023/10/10 13:20:50;;;;;;;18.67;4.53;;;23.40;1.00;;;;;;4996487;28;46856;-85
2023/10/10 13:23:17;;;;;;;23.40;4.90;;;23.50;1.80;;;;;;4997234;28;46493;-85
2023/10/10 13:25:42;;;;;;;17.27;4.60;;;23.40;1.00;;;;;;5000695;28;46530;-84
2023/10/10 13:28:09;;;;;;;24.03;4.50;;;23.40;1.20;;;;;;4999937;28;46722;-84
2023/10/10 13:30:39;;;;;;;20.00;4.60;;;23.50;1.20;;;;;;4999260;28;46364;-85
2023/10/10 13:33:06;;;;;;;19.27;5.33;;;23.40;1.30;;;;;;4990845;28;46659;-84
2023/10/10 13:35:36;;;;;;;18.23;4.23;;;23.40;1.50;;;;;;4998109;28;46791;-85
2023/10/10 13:38:02;;;;;;;22.00;4.43;;;23.50;1.40;;;;;;5000048;28;47306;-84
2023/10/10 13:40:37;;;;;;;27.40;5.10;;;23.60;1.30;;;;;;5000094;28;46563;-86
2023/10/10 13:43:09;;;;;;;28.23;5.00;;;23.60;1.40;;;;;;5004815;28;46569;-83
2023/10/10 13:45:37;;;;;;;25.77;4.90;;;23.80;1.30;;;;;;4997859;28;46384;-84
2023/10/10 13:48:08;;;;;;;28.97;4.37;;;23.90;1.20;;;;;;4998721;28;46424;-82
2023/10/10 13:50:41;;;;;;;31.90;4.13;;;23.90;1.20;;;;;;5002218;28;46674;-86
2023/10/10 13:53:10;;;;;;;13.60;3.73;;;24.00;1.30;;;;;;5004181;28;46422;-82
2023/10/10 13:55:38;;;;;;;20.37;4.73;;;24.00;1.30;;;;;;4997734;28;46833;-82
2023/10/10 13:58:07;;;;;;;20.03;4.30;;;24.10;1.40;;;;;;4997932;28;48657;-82
2023/10/10 14:00:35;;;;;;;25.33;4.90;;;24.10;1.60;;;;;;4998113;28;46408;-82
2023/10/10 14:03:03;;;;;;;25.47;4.50;;;24.00;1.70;;;;;;4999419;28;46579;-81
2023/10/10 14:05:34;;;;;;;26.53;4.37;;;23.90;3.10;;;;;;4996692;28;46498;-85
2023/10/10 14:08:06;;;;;;;19.47;4.43;;;23.80;2.60;;;;;;4997137;28;47964;-83
2023/10/10 14:10:40;;;;;;;18.00;4.10;;;23.80;2.50;;;;;;4995417;28;46504;-82
2023/10/10 14:13:18;;;;;;;28.20;4.70;;;23.80;2.50;;;;;;4998952;28;46367;-81
2023/10/10 14:16:01;;;;;;;16.67;4.43;;;23.80;2.60;;;;;;4998858;28;46589;-81
2023/10/10 14:18:31;;;;;;;28.10;4.73;;;23.70;2.50;;;;;;4995417;28;49549;-82
2023/10/10 14:21:01;;;;;;;18.20;4.97;;;23.60;2.50;;;;;;4996137;28;46544;-82
2023/10/10 14:23:29;;;;;;;20.93;4.97;;;23.60;2.50;;;;;;4996313;28;46615;-80
2023/10/10 14:26:14;;;;;;;17.20;4.67;;;23.60;2.50;;;;;;4997113;28;46811;-81
2023/10/10 14:28:52;;;;;;;23.00;4.90;;;23.50;2.40;;;;;;4996471;28;47229;-81
2023/10/10 14:31:22;;;;;;;24.10;4.83;;;23.40;2.30;;;;;;4997714;28;46680;-80
2023/10/10 14:33:48;;;;;;;19.23;6.20;;;23.40;2.70;;;;;;4998016;28;46419;-82
2023/10/10 14:36:14;;;;;;;20.37;4.10;;;23.40;3.10;;;;;;4995082;28;46670;-84
2023/10/10 14:38:46;;;;;;;22.20;4.30;;;23.40;3.00;;;;;;4998504;28;47154;-82
2023/10/10 14:41:19;;;;;;;25.47;4.50;;;23.50;2.90;;;;;;4999330;28;47025;-82
2023/10/10 14:43:59;;;;;;;45.73;6.03;;;23.40;3.10;;;;;;4986187;28;46512;-83
2023/10/10 14:46:32;;;;;;;24.83;4.77;;;23.40;3.50;;;;;;4996801;28;47043;-82
2023/10/10 14:49:01;;;;;;;25.90;4.27;;;23.30;3.80;;;;;;4995369;28;47075;-81
2023/10/10 14:51:33;;;;;;;28.50;5.00;;;23.30;4.00;;;;;;4996012;28;46574;-83
2023/10/10 14:54:06;;;;;;;20.43;5.67;;;23.30;4.00;;;;;;4996471;28;46721;-82
2023/10/10 14:56:37;;;;;;;15.37;4.23;;;23.30;4.20;;;;;;4996258;28;46594;-82
2023/10/10 14:59:05;;;;;;;21.77;5.20;;;23.20;4.40;;;;;;4996370;28;46443;-82
2023/10/10 15:01:35;;;;;;;20.17;4.80;;;23.10;4.60;;;;;;4992415;28;46480;-82
2023/10/10 15:04:03;;;;;;;17.87;4.40;;;23.10;5.00;;;;;;4992306;28;46440;-82
2023/10/10 15:06:29;;;;;;;20.37;4.60;;;22.90;5.30;;;;;;4995441;28;46380;-83
2023/10/10 15:08:55;;;;;;;21.90;5.90;;;22.80;5.60;;;;;;4995062;28;46424;-83
2023/10/10 15:11:21;;;;;;;17.43;4.83;;;22.70;6.10;;;;;;4996159;28;46356;-80
2023/10/10 15:13:48;;;;;;;19.40;5.27;;;22.60;6.20;;;;;;4995330;28;46421;-83
2023/10/10 15:16:14;;;;;;;22.90;5.93;;;22.60;6.50;;;;;;4994638;28;47029;-84
2023/10/10 15:18:41;;;;;;;29.07;5.20;;;22.60;6.60;;;;;;4996088;28;46466;-85
2023/10/10 15:21:07;;;;;;;22.50;4.53;;;22.70;6.70;;;;;;4996993;28;46496;-85
2023/10/10 15:23:32;;;;;;;16.37;4.37;;;22.70;7.60;;;;;;4996862;28;47083;-83
2023/10/10 15:26:17;;;;;;;21.40;4.90;;;22.70;6.60;;;;;;4998956;28;46551;-85
2023/10/10 15:28:43;;;;;;;24.87;5.30;;;22.60;6.80;;;;;;4999342;28;47249;-84
2023/10/10 15:31:08;;;;;;;19.80;4.83;;;22.60;7.10;;;;;;4996472;28;46065;-84
2023/10/10 15:33:34;;;;;;;24.80;5.80;;;22.50;7.40;;;;;;4998471;28;46474;-85
2023/10/10 15:36:00;;;;;;;15.47;4.20;;;22.40;7.80;;;;;;5003088;28;46776;-84
2023/10/10 15:38:29;;;;;;;14.43;4.43;;;22.30;7.90;;;;;;5002241;28;46765;-81